ADDS METAR Data INFO
IDs: Format: Raw Decoded Include TAF

Data at: 0357 UTC 19 Jul 2018

K1H2 190335Z AUTO 00000KT 10SM CLR 20/17 A3003 RMK AO2 T02020165
K1H2 190315Z AUTO 00000KT 10SM CLR 20/17 A3003 RMK AO2 T01970167
K1H2 190255Z AUTO 00000KT 10SM CLR 19/18 A3004 RMK AO2 T01870175
K1H2 190235Z AUTO 00000KT 10SM CLR 19/17 A3004 RMK AO2 T01920174
K1H2 190215Z AUTO 00000KT 10SM CLR 20/17 A3002 RMK AO2 T01950173
K1H2 190155Z AUTO 00000KT 10SM CLR 20/17 A3002 RMK AO2 T02010172
K1H2 190135Z AUTO 00000KT 10SM CLR 21/17 A3002 RMK AO2 T02060173
K1H2 190115Z AUTO 00000KT 10SM CLR 21/17 A3003 RMK AO2 T02140170
K1H2 190055Z AUTO 00000KT 10SM CLR 22/18 A3002 RMK AO2 T02210176
K1H2 190035Z AUTO 00000KT 10SM CLR 24/16 A3003 RMK AO2 T02400158
K1H2 190015Z AUTO 00000KT 10SM CLR 26/15 A3002 RMK AO2 T02570151
K1H2 182355Z AUTO 00000KT 10SM CLR 26/15 A3002 RMK AO2 T02620152 10279 20258
K1H2 182335Z AUTO 36003KT 10SM CLR 27/15 A3002 RMK AO2 T02650147
K1H2 182315Z AUTO 36003KT 10SM CLR 26/15 A3003 RMK AO2 T02590154
K1H2 182255Z AUTO 00000KT 10SM CLR 27/15 A3003 RMK AO2 T02720148
K1H2 182235Z AUTO 35004KT 10SM CLR 27/16 A3003 RMK AO2 T02710155
K1H2 182215Z AUTO 01004KT 10SM CLR 27/16 A3003 RMK AO2 T02720158
K1H2 182155Z AUTO 36003KT 10SM CLR 28/16 A3004 RMK AO2 T02750160
K1H2 182135Z AUTO 36005KT 10SM CLR 28/17 A3004 RMK AO2 T02750165
K1H2 182115Z AUTO 36004KT 10SM CLR 28/16 A3004 RMK AO2 T02750164
K1H2 182055Z AUTO 04004KT 10SM CLR 28/17 A3005 RMK AO2 T02750165
K1H2 182035Z AUTO 35005KT 10SM CLR 27/17 A3006 RMK AO2 T02740167
K1H2 182015Z AUTO 34005KT 10SM CLR 28/18 A3006 RMK AO2 T02780176
K1H2 181955Z AUTO 31005KT 10SM CLR 27/17 A3007 RMK AO2 T02680169
K1H2 181935Z AUTO 34005KT 10SM CLR 27/17 A3008 RMK AO2 T02700171
K1H2 181915Z AUTO 34005KT 10SM CLR 27/18 A3009 RMK AO2 T02670176
K1H2 181855Z AUTO 30004KT 10SM CLR 27/18 A3009 RMK AO2 T02700178
K1H2 181835Z AUTO 00000KT 10SM CLR 27/17 A3009 RMK AO2 T02680172
K1H2 181815Z AUTO 06003KT 10SM CLR 27/17 A3009 RMK AO2 T02650171
K1H2 181755Z AUTO 05004KT 10SM CLR 26/17 A3010 RMK AO2 T02630171 10270 20190
K1H2 181735Z AUTO 00000KT 10SM CLR 27/17 A3010 RMK AO2 T02650165
K1H2 181715Z AUTO 03005KT 10SM CLR 26/17 A3011 RMK AO2 T02640171
K1H2 181655Z AUTO 05004KT 10SM CLR 26/16 A3011 RMK AO2 T02600161
K1H2 181635Z AUTO 05005KT 10SM CLR 26/16 A3012 RMK AO2 T02570156
K1H2 181615Z AUTO 02004KT 10SM CLR 26/15 A3012 RMK AO2 T02550154
K1H2 181555Z AUTO 03004KT 10SM CLR 25/15 A3013 RMK AO2 T02510150
K1H2 181535Z AUTO 05005KT 10SM CLR 25/15 A3012 RMK AO2 T02480149
K1H2 181515Z AUTO 03005KT 10SM CLR 24/15 A3012 RMK AO2 T02430146
K1H2 181455Z AUTO 06005KT 10SM CLR 24/14 A3012 RMK AO2 T02400143
K1H2 181435Z AUTO 04004KT 10SM CLR 24/15 A3012 RMK AO2 T02370154
K1H2 181415Z AUTO 03006KT 10SM CLR 23/15 A3012 RMK AO2 T02300153
K1H2 181355Z AUTO 04004KT 10SM CLR 22/16 A3012 RMK AO2 T02240160
K1H2 181335Z AUTO 06003KT 10SM CLR 21/16 A3012 RMK AO2 T02140163
K1H2 181315Z AUTO 00000KT 10SM CLR 20/16 A3012 RMK AO2 T01960159
K1H2 181255Z AUTO 00000KT 10SM CLR 19/16 A3012 RMK AO2 T01940155
K1H2 181235Z AUTO 00000KT 10SM CLR 19/16 A3011 RMK AO2 T01910155
K1H2 181215Z AUTO 05003KT 10SM CLR 19/15 A3011 RMK AO2 T01900151
K1H2 181155Z AUTO 05003KT 10SM CLR 19/16 A3011 RMK AO2 T01910155 10213 20183
K1H2 181135Z AUTO 04004KT 10SM CLR 19/16 A3011 RMK AO2 T01870156
K1H2 181115Z AUTO 04003KT 10SM CLR 18/16 A3011 RMK AO2 T01840161
K1H2 181055Z AUTO 04003KT 10SM CLR 18/17 A3011 RMK AO2 T01830165
K1H2 181035Z AUTO 04003KT 10SM CLR 19/17 A3010 RMK AO2 T01850168
K1H2 181015Z AUTO 00000KT 10SM CLR 19/17 A3010 RMK AO2 T01860170
K1H2 180955Z AUTO 00000KT 10SM CLR 19/17 A3010 RMK AO2 T01880173
K1H2 180935Z AUTO 04003KT 10SM CLR 19/18 A3010 RMK AO2 T01910176
K1H2 180915Z AUTO 05004KT 10SM CLR 19/18 A3009 RMK AO2 T01920178
K1H2 180855Z AUTO 05003KT 10SM CLR 20/18 A3009 RMK AO2 T01950180
K1H2 180835Z AUTO 00000KT 10SM CLR 20/18 A3010 RMK AO2 T01960180
K1H2 180815Z AUTO 04003KT 10SM CLR 20/18 A3009 RMK AO2 T01990182
K1H2 180755Z AUTO 04003KT 10SM CLR 20/19 A3009 RMK AO2 T02010185
K1H2 180735Z AUTO 05003KT 10SM CLR 21/19 A3009 RMK AO2 T02050187
K1H2 180715Z AUTO 04003KT 10SM CLR 21/19 A3009 RMK AO2 T02100187
K1H2 180655Z AUTO 02003KT 10SM CLR 21/19 A3009 RMK AO2 T02130186
K1H2 180635Z AUTO 00000KT 10SM CLR 21/19 A3008 RMK AO2 T02090187
K1H2 180615Z AUTO 00000KT 10SM CLR 20/19 A3008 RMK AO2 T01950192
K1H2 180555Z AUTO 33003KT 10SM CLR 20/19 A3008 RMK AO2 T01960191 10266 20196 402980196
K1H2 180535Z AUTO 00000KT 10SM CLR 20/20 A3008 RMK AO2 T02000195
K1H2 180515Z AUTO 00000KT 10SM CLR 20/20 A3008 RMK AO2 T02010196
K1H2 180455Z AUTO 00000KT 10SM CLR 20/20 A3008 RMK AO2 T02040197
K1H2 180435Z AUTO 00000KT 10SM CLR 20/20 A3008 RMK AO2 T02010195
K1H2 180415Z AUTO 00000KT 10SM CLR 20/20 A3008 RMK AO2 T02030195
K1H2 180355Z AUTO 00000KT 10SM CLR 21/20 A3008 RMK AO2 T02070198
K1H2 180335Z AUTO 00000KT 10SM CLR 21/20 A3008 RMK AO2 T02130203
K1H2 180315Z AUTO 00000KT 10SM CLR 21/20 A3007 RMK AO2 T02140204
K1H2 180255Z AUTO 00000KT 10SM CLR 22/21 A3007 RMK AO2 T02170206
K1H2 180235Z AUTO 00000KT 10SM CLR 22/21 A3007 RMK AO2 T02210206
K1H2 180215Z AUTO 00000KT 10SM CLR 23/20 A3006 RMK AO2 T02250203
K1H2 180155Z AUTO 00000KT 10SM CLR 23/21 A3006 RMK AO2 T02300209
K1H2 180135Z AUTO 00000KT 10SM CLR 24/21 A3006 RMK AO2 T02350210
K1H2 180115Z AUTO 00000KT 10SM CLR 24/21 A3005 RMK AO2 T02360208
K1H2 180055Z AUTO 00000KT 10SM CLR 25/22 A3005 RMK AO2 T02520217
K1H2 180035Z AUTO 00000KT 10SM CLR 27/19 A3005 RMK AO2 T02650194
K1H2 180015Z AUTO 00000KT 10SM CLR 27/18 A3005 RMK AO2 T02650182
K1H2 172355Z AUTO 00000KT 10SM CLR 27/17 A3005 RMK AO2 T02660174 10298 20266
K1H2 172335Z AUTO 35003KT 10SM CLR 28/17 A3004 RMK AO2 T02760169
K1H2 172315Z AUTO 36003KT 10SM CLR 29/18 A3004 RMK AO2 T02850176
K1H2 172255Z AUTO 35005KT 10SM CLR 29/18 A3004 RMK AO2 T02860175
K1H2 172235Z AUTO 00000KT 10SM CLR 29/18 A3004 RMK AO2 T02900182
K1H2 172215Z AUTO 34005KT 10SM CLR 29/18 A3005 RMK AO2 T02890179
K1H2 172155Z AUTO 00000KT 10SM CLR 29/19 A3006 RMK AO2 T02930189
K1H2 172135Z AUTO 34007KT 10SM CLR 29/19 A3006 RMK AO2 T02900189
K1H2 172115Z AUTO 35004KT 10SM CLR 29/19 A3006 RMK AO2 T02930187
K1H2 172055Z AUTO 35003KT 10SM SCT044 29/20 A3006 RMK AO2 T02870195
K1H2 172035Z AUTO 34003KT 10SM SCT044 SCT050 29/20 A3006 RMK AO2 T02880202
K1H2 172015Z AUTO 00000KT 10SM CLR 29/19 A3006 RMK AO2 T02930190
K1H2 171955Z AUTO 31006KT 10SM CLR 29/18 A3006 RMK AO2 T02940184
K1H2 171935Z AUTO 33003KT 10SM CLR 30/19 A3006 RMK AO2 T02960193
K1H2 171915Z AUTO 34006KT 10SM CLR 29/19 A3006 RMK AO2 T02930194
K1H2 171855Z AUTO 05004KT 10SM SCT043 29/20 A3007 RMK AO2 T02940198
K1H2 171835Z AUTO 00000KT 10SM CLR 29/18 A3007 RMK AO2 T02900177
K1H2 171815Z AUTO 35006KT 10SM CLR 29/18 A3008 RMK AO2 T02880182
K1H2 171755Z AUTO 36004KT 10SM CLR 29/18 A3008 RMK AO2 T02890181 10289 20215
K1H2 171735Z AUTO 05004KT 10SM CLR 29/18 A3008 RMK AO2 T02860179
K1H2 171715Z AUTO 05005KT 10SM CLR 29/18 A3008 RMK AO2 T02880175
K1H2 171655Z AUTO 03005KT 10SM CLR 29/16 A3008 RMK AO2 T02850162
K1H2 171635Z AUTO 05003KT 10SM CLR 29/17 A3008 RMK AO2 T02850165
K1H2 171615Z AUTO 01005KT 10SM CLR 28/17 A3008 RMK AO2 T02820172